Time;durP1;ratioP1;P1;durP2;ratioP2;P2;SDS_P1;SDS_P2;PMS_P1;PMS_P2;Temp;Humidity;BMP_temperature;BMP_pressure;BME280_temperature;BME280_humidity;BME280_pressure;Samples;Min_cycle;Max_cycle;Signal;HPM_P1;HPM_P2
2023/08/10 00:02:18;;;;;;;2.70;1.92;;;14.20;99.90;;;;;;5136909;27;20059;-77
2023/08/10 00:04:44;;;;;;;4.72;2.40;;;14.20;99.90;;;;;;5106474;27;20132;-76
2023/08/10 00:07:10;;;;;;;4.63;2.40;;;14.20;99.90;;;;;;5125466;27;20049;-77
2023/08/10 00:09:36;;;;;;;3.85;2.47;;;14.10;99.90;;;;;;5118385;27;20051;-76
2023/08/10 00:12:02;;;;;;;5.80;2.58;;;14.10;99.90;;;;;;5134109;27;20050;-77
2023/08/10 00:14:27;;;;;;;4.15;2.55;;;14.00;99.90;;;;;;5113343;27;20054;-78
2023/08/10 00:16:53;;;;;;;4.03;2.53;;;14.00;99.90;;;;;;5138061;27;20055;-77
2023/08/10 00:19:19;;;;;;;3.60;2.83;;;14.00;99.90;;;;;;5137149;27;20657;-77
2023/08/10 00:21:45;;;;;;;3.25;2.08;;;13.90;99.90;;;;;;5126846;27;20047;-76
2023/08/10 00:24:11;;;;;;;5.30;2.30;;;13.90;99.90;;;;;;5125217;27;20047;-77
2023/08/10 00:26:37;;;;;;;4.55;2.42;;;13.90;99.90;;;;;;5118608;27;20077;-76
2023/08/10 00:29:03;;;;;;;5.85;3.00;;;13.80;99.90;;;;;;5144194;27;20058;-77
2023/08/10 00:31:29;;;;;;;7.10;3.17;;;13.80;99.90;;;;;;5135119;27;20059;-77
2023/08/10 00:33:55;;;;;;;4.82;2.25;;;13.80;99.90;;;;;;5126599;27;20039;-77
2023/08/10 00:36:20;;;;;;;4.10;2.50;;;13.70;99.90;;;;;;5133212;27;20920;-77
2023/08/10 00:38:46;;;;;;;3.33;2.63;;;13.70;99.90;;;;;;5106307;27;20100;-76
2023/08/10 00:41:12;;;;;;;2.53;2.25;;;13.60;99.90;;;;;;5129516;27;20641;-77
2023/08/10 00:43:37;;;;;;;3.95;2.33;;;13.60;99.90;;;;;;5134143;27;20618;-77
2023/08/10 00:46:04;;;;;;;4.93;2.90;;;13.60;99.90;;;;;;5143760;27;20046;-76
2023/08/10 00:48:31;;;;;;;3.60;2.60;;;13.50;99.90;;;;;;5138242;27;20586;-76
2023/08/10 00:50:57;;;;;;;5.18;2.42;;;13.20;99.90;;;;;;5140848;27;20108;-77
2023/08/10 00:53:23;;;;;;;5.82;2.75;;;13.50;99.90;;;;;;5138252;27;20162;-76
2023/08/10 00:55:51;;;;;;;3.47;2.70;;;13.40;99.90;;;;;;5119504;27;20054;-76
2023/08/10 00:58:21;;;;;;;6.03;2.88;;;13.40;99.90;;;;;;5132435;27;20781;-76
2023/08/10 01:00:47;;;;;;;5.05;2.47;;;13.40;99.90;;;;;;5135257;27;20042;-76
2023/08/10 01:03:14;;;;;;;1.85;1.73;;;13.40;99.90;;;;;;5125559;27;20047;-78
2023/08/10 01:06:05;;;;;;;3.83;2.13;;;13.40;99.90;;;;;;5111028;27;20047;-76
2023/08/10 01:08:59;;;;;;;4.43;2.55;;;13.40;99.90;;;;;;5136521;27;20061;-77
2023/08/10 01:11:54;;;;;;;3.25;2.42;;;13.40;99.90;;;;;;5108141;27;20054;-79
2023/08/10 01:14:51;;;;;;;3.53;2.28;;;13.50;99.90;;;;;;5121141;27;20078;-77
2023/08/10 01:17:27;;;;;;;4.68;2.60;;;13.50;99.90;;;;;;5098535;27;20650;-77
2023/08/10 01:19:54;;;;;;;4.70;2.33;;;13.50;99.90;;;;;;5132705;27;20141;-77
2023/08/10 01:22:37;;;;;;;4.15;2.05;;;13.50;99.90;;;;;;5137843;27;20118;-77
2023/08/10 01:25:06;;;;;;;4.03;1.97;;;13.50;99.90;;;;;;5129170;27;20126;-76
2023/08/10 01:27:33;;;;;;;3.10;2.08;;;13.50;99.90;;;;;;5131218;27;20394;-76
2023/08/10 01:30:00;;;;;;;3.28;2.53;;;13.60;99.90;;;;;;5130324;27;20054;-78
2023/08/10 01:32:29;;;;;;;3.63;2.80;;;13.60;99.90;;;;;;5110241;27;20070;-76
2023/08/10 01:34:59;;;;;;;4.50;2.53;;;13.60;99.90;;;;;;5124067;27;20043;-79
2023/08/10 01:37:26;;;;;;;4.32;2.72;;;13.70;99.90;;;;;;5135413;27;20051;-76
2023/08/10 01:39:52;;;;;;;3.70;2.78;;;13.70;99.90;;;;;;5118299;27;20051;-77
2023/08/10 01:42:17;;;;;;;6.45;3.15;;;13.70;99.90;;;;;;5128513;27;20042;-77
2023/08/10 01:44:43;;;;;;;4.78;2.33;;;13.70;99.90;;;;;;5112231;27;20520;-77
2023/08/10 01:47:32;;;;;;;7.78;2.60;;;13.70;99.90;;;;;;5138827;27;20054;-77
2023/08/10 01:50:02;;;;;;;3.88;2.67;;;13.70;99.90;;;;;;5123397;27;20043;-77
2023/08/10 01:52:37;;;;;;;5.78;3.05;;;13.80;99.90;;;;;;5125526;27;20115;-77
2023/08/10 01:55:05;;;;;;;4.40;2.67;;;13.80;99.90;;;;;;5134923;27;20901;-78
2023/08/10 01:57:31;;;;;;;3.67;2.50;;;13.80;99.90;;;;;;5134532;27;20061;-78
2023/08/10 01:59:57;;;;;;;3.58;2.53;;;13.80;99.90;;;;;;5117682;27;20479;-77
2023/08/10 02:02:23;;;;;;;4.00;2.72;;;13.80;99.90;;;;;;5120681;27;20046;-78
2023/08/10 02:04:50;;;;;;;3.55;2.72;;;13.90;99.90;;;;;;5112821;27;20051;-79
2023/08/10 02:07:16;;;;;;;5.97;3.13;;;13.90;99.90;;;;;;5119762;27;20046;-79
2023/08/10 02:09:42;;;;;;;2.85;2.47;;;13.90;99.90;;;;;;5122894;27;20123;-77
2023/08/10 02:12:08;;;;;;;3.60;2.50;;;13.90;99.90;;;;;;5106798;27;20458;-79
2023/08/10 02:14:34;;;;;;;4.05;2.80;;;13.90;99.90;;;;;;5109035;27;20043;-77
2023/08/10 02:17:00;;;;;;;5.40;2.53;;;13.90;99.90;;;;;;5127874;27;20046;-77
2023/08/10 02:19:26;;;;;;;5.40;2.85;;;13.90;99.90;;;;;;5124277;27;20061;-77
2023/08/10 02:21:51;;;;;;;3.03;2.50;;;13.50;99.90;;;;;;5113347;27;20607;-78
2023/08/10 02:24:17;;;;;;;4.38;2.70;;;13.80;99.90;;;;;;5130398;27;20099;-77
2023/08/10 02:26:43;;;;;;;2.85;2.45;;;13.80;99.90;;;;;;5115022;27;20050;-77
2023/08/10 02:29:08;;;;;;;6.43;3.22;;;13.70;99.90;;;;;;5109501;27;20042;-79
2023/08/10 02:31:34;;;;;;;4.53;2.83;;;13.70;99.90;;;;;;5132254;27;20059;-79
2023/08/10 02:33:59;;;;;;;4.53;2.45;;;13.70;99.90;;;;;;5113671;27;20053;-77
2023/08/10 02:36:25;;;;;;;6.60;3.33;;;13.70;99.90;;;;;;5122223;27;20046;-77
2023/08/10 02:38:51;;;;;;;4.65;3.38;;;13.70;99.90;;;;;;5115484;27;20839;-77
2023/08/10 02:41:16;;;;;;;3.20;2.45;;;13.70;99.90;;;;;;5119416;27;20051;-80
2023/08/10 02:43:42;;;;;;;3.67;2.33;;;13.70;99.90;;;;;;5102076;27;20062;-77
2023/08/10 02:46:08;;;;;;;7.28;3.28;;;13.70;99.90;;;;;;5088137;27;20047;-77
2023/08/10 02:48:34;;;;;;;4.05;2.83;;;13.70;99.90;;;;;;5136688;27;20051;-77
2023/08/10 02:50:59;;;;;;;4.43;2.67;;;13.70;99.90;;;;;;5129904;27;20039;-77
2023/08/10 02:53:25;;;;;;;5.88;3.42;;;13.70;99.90;;;;;;5129640;27;20614;-77
2023/08/10 02:55:51;;;;;;;5.30;2.72;;;13.70;99.90;;;;;;5128963;27;20055;-77
2023/08/10 02:58:16;;;;;;;4.22;2.90;;;13.70;99.90;;;;;;5127299;27;20045;-79
2023/08/10 03:00:42;;;;;;;6.55;3.20;;;13.70;99.90;;;;;;5134105;27;20055;-78
2023/08/10 03:03:08;;;;;;;5.25;3.17;;;13.60;99.90;;;;;;5127582;27;20500;-77
2023/08/10 03:05:34;;;;;;;5.90;3.25;;;13.60;99.90;;;;;;5114554;27;20057;-79
2023/08/10 03:08:00;;;;;;;10.75;3.50;;;13.60;99.90;;;;;;5118859;27;20461;-77
2023/08/10 03:10:26;;;;;;;2.90;2.60;;;13.60;99.90;;;;;;5142040;27;20491;-77
2023/08/10 03:12:51;;;;;;;4.82;3.33;;;13.60;99.90;;;;;;5138615;27;20107;-78
2023/08/10 03:15:17;;;;;;;4.15;2.97;;;13.60;99.90;;;;;;5129128;27;20046;-77
2023/08/10 03:17:44;;;;;;;7.03;3.50;;;13.60;99.90;;;;;;5130076;27;20439;-78
2023/08/10 03:20:14;;;;;;;4.20;3.28;;;13.50;99.90;;;;;;5117595;27;20095;-77
2023/08/10 03:22:40;;;;;;;3.38;2.72;;;13.50;99.90;;;;;;5128076;27;20058;-77
2023/08/10 03:25:06;;;;;;;6.75;3.00;;;13.50;99.90;;;;;;5125142;27;20074;-77
2023/08/10 03:27:32;;;;;;;4.32;3.75;;;13.50;99.90;;;;;;5126230;27;20043;-80
2023/08/10 03:29:57;;;;;;;3.92;3.30;;;13.50;99.90;;;;;;5104108;27;20055;-77
2023/08/10 03:32:23;;;;;;;3.35;2.83;;;13.50;99.90;;;;;;5107454;27;20175;-79
2023/08/10 03:34:49;;;;;;;5.75;3.90;;;13.50;99.90;;;;;;5099785;28;20051;-77
2023/08/10 03:37:15;;;;;;;5.80;2.70;;;13.50;99.90;;;;;;5100226;28;20112;-77
2023/08/10 03:39:40;;;;;;;6.80;3.40;;;13.50;99.90;;;;;;5113485;27;20391;-77
2023/08/10 03:42:06;;;;;;;4.93;3.20;;;13.50;99.90;;;;;;5099600;28;20183;-77
2023/08/10 03:44:32;;;;;;;6.47;3.13;;;13.50;99.90;;;;;;5115053;28;20043;-77
2023/08/10 03:46:58;;;;;;;4.88;3.70;;;13.50;99.90;;;;;;5096144;28;20052;-77
2023/08/10 03:49:24;;;;;;;4.82;3.60;;;13.60;99.90;;;;;;5113409;28;20047;-78
2023/08/10 03:51:50;;;;;;;4.18;2.78;;;13.60;99.90;;;;;;5114968;28;20058;-77
2023/08/10 03:54:17;;;;;;;3.92;2.45;;;13.60;99.90;;;;;;5106824;27;20047;-77
2023/08/10 03:56:43;;;;;;;4.53;3.17;;;13.60;99.90;;;;;;5120569;28;20050;-77
2023/08/10 03:59:10;;;;;;;4.03;3.13;;;13.60;99.90;;;;;;5118701;27;20113;-77
2023/08/10 04:01:36;;;;;;;3.42;2.63;;;13.70;99.90;;;;;;5112736;28;20484;-76
2023/08/10 04:04:02;;;;;;;4.47;2.95;;;13.70;99.90;;;;;;5114955;28;20053;-80
2023/08/10 04:06:27;;;;;;;6.93;3.40;;;13.80;99.90;;;;;;5099906;27;20042;-75
2023/08/10 04:08:53;;;;;;;5.35;3.30;;;13.80;99.90;;;;;;5113948;28;20084;-78
2023/08/10 04:11:19;;;;;;;8.60;4.03;;;13.80;99.90;;;;;;5119639;28;20051;-78
2023/08/10 04:13:46;;;;;;;4.45;3.17;;;13.70;99.90;;;;;;5107563;27;20769;-77
2023/08/10 04:16:12;;;;;;;6.35;2.78;;;13.70;99.90;;;;;;5115030;27;20122;-77
2023/08/10 04:18:38;;;;;;;5.05;2.95;;;13.80;99.90;;;;;;5111273;28;20054;-77
2023/08/10 04:21:05;;;;;;;4.13;2.65;;;13.80;99.90;;;;;;5108862;28;20082;-79
2023/08/10 04:23:30;;;;;;;5.63;3.17;;;13.80;99.90;;;;;;5101054;28;20052;-78
2023/08/10 04:25:56;;;;;;;5.22;3.67;;;13.80;99.90;;;;;;5100616;28;20048;-76
2023/08/10 04:28:23;;;;;;;8.50;4.40;;;13.80;99.90;;;;;;5107683;28;20058;-79
2023/08/10 04:30:48;;;;;;;9.80;8.50;;;13.80;99.90;;;;;;5129709;27;20112;-77
2023/08/10 04:33:14;;;;;;;10.63;8.32;;;13.90;99.90;;;;;;5122632;27;20381;-78
2023/08/10 04:35:40;;;;;;;7.60;5.75;;;13.90;99.90;;;;;;5110894;27;20047;-77
2023/08/10 04:38:06;;;;;;;4.85;4.40;;;13.90;99.90;;;;;;5134087;27;20039;-78
2023/08/10 04:40:31;;;;;;;4.70;3.65;;;13.90;99.90;;;;;;5132004;27;20053;-77
2023/08/10 04:43:00;;;;;;;4.28;3.53;;;13.80;99.90;;;;;;5122762;27;20796;-77
2023/08/10 04:45:26;;;;;;;6.55;4.60;;;13.70;99.90;;;;;;5136625;27;20066;-77
2023/08/10 04:47:52;;;;;;;5.78;3.72;;;13.60;99.90;;;;;;5116363;27;20122;-77
2023/08/10 04:50:17;;;;;;;7.72;4.40;;;13.60;99.90;;;;;;5136468;27;20169;-79
2023/08/10 04:52:43;;;;;;;8.98;5.18;;;13.70;99.90;;;;;;5130639;27;20140;-79
2023/08/10 04:55:11;;;;;;;8.40;4.90;;;13.70;99.90;;;;;;5112673;27;20047;-77
2023/08/10 04:57:38;;;;;;;5.53;4.50;;;13.80;99.90;;;;;;5123735;27;20085;-77
2023/08/10 05:00:14;;;;;;;5.28;3.42;;;13.80;99.90;;;;;;5101396;27;20043;-77
2023/08/10 05:02:41;;;;;;;4.82;3.45;;;13.90;99.90;;;;;;5123370;27;20138;-78
2023/08/10 05:05:08;;;;;;;4.35;2.97;;;13.90;99.90;;;;;;5120793;27;20656;-79
2023/08/10 05:07:34;;;;;;;3.33;2.97;;;13.90;99.90;;;;;;5107981;27;20045;-79
2023/08/10 05:10:05;;;;;;;4.55;3.10;;;13.90;99.90;;;;;;5104043;27;20130;-77
2023/08/10 05:12:32;;;;;;;4.65;3.25;;;14.00;99.90;;;;;;5105955;27;20141;-77
2023/08/10 05:14:57;;;;;;;3.90;3.00;;;14.00;99.90;;;;;;5115115;27;20725;-77
2023/08/10 05:17:23;;;;;;;5.22;2.88;;;14.10;99.90;;;;;;5127797;27;20061;-78
2023/08/10 05:19:49;;;;;;;6.63;4.00;;;14.10;99.90;;;;;;5124140;27;20082;-78
2023/08/10 05:22:15;;;;;;;6.70;3.15;;;14.20;99.90;;;;;;5129648;27;20071;-77
2023/08/10 05:24:40;;;;;;;3.88;3.40;;;14.30;99.90;;;;;;5130964;27;20078;-79
2023/08/10 05:27:06;;;;;;;4.32;2.83;;;14.30;99.90;;;;;;5130376;27;20042;-77
2023/08/10 05:29:32;;;;;;;3.35;2.50;;;14.40;99.90;;;;;;5105815;27;20078;-77
2023/08/10 05:31:57;;;;;;;4.82;3.15;;;14.40;99.90;;;;;;5140080;27;20800;-77
2023/08/10 05:34:23;;;;;;;6.57;3.00;;;14.50;99.90;;;;;;5139108;27;20039;-77
2023/08/10 05:36:49;;;;;;;5.30;3.42;;;14.50;99.90;;;;;;5111232;27;20047;-78
2023/08/10 05:39:15;;;;;;;4.72;3.42;;;14.60;99.90;;;;;;5133343;27;20116;-77
2023/08/10 05:41:40;;;;;;;6.28;2.85;;;14.70;99.90;;;;;;5130599;27;20151;-77
2023/08/10 05:44:06;;;;;;;3.55;2.88;;;14.80;99.90;;;;;;5118310;27;20100;-77
2023/08/10 05:46:32;;;;;;;4.38;2.58;;;14.90;99.90;;;;;;5119788;27;20082;-77
2023/08/10 05:48:57;;;;;;;5.53;3.25;;;15.00;99.90;;;;;;5138724;27;20037;-77
2023/08/10 05:51:23;;;;;;;7.78;3.17;;;15.10;99.90;;;;;;5135689;27;20541;-77
2023/08/10 05:53:49;;;;;;;5.32;3.78;;;15.20;99.90;;;;;;5121662;27;20051;-77
2023/08/10 05:56:14;;;;;;;4.65;3.25;;;15.30;99.90;;;;;;5086432;27;20065;-77
2023/08/10 05:58:40;;;;;;;4.57;3.08;;;15.30;99.90;;;;;;5120144;27;20082;-77
2023/08/10 06:01:06;;;;;;;6.78;3.60;;;15.30;99.90;;;;;;5105664;27;20122;-77
2023/08/10 06:03:32;;;;;;;5.03;3.13;;;15.30;99.90;;;;;;5127500;27;20047;-77
2023/08/10 06:06:00;;;;;;;3.17;2.75;;;15.30;99.90;;;;;;5101207;27;20107;-77
2023/08/10 06:08:26;;;;;;;4.95;2.75;;;15.40;99.90;;;;;;5131712;27;20091;-76
2023/08/10 06:10:52;;;;;;;5.32;2.95;;;15.40;99.90;;;;;;5102164;27;20045;-77
2023/08/10 06:13:18;;;;;;;7.82;3.50;;;15.50;99.90;;;;;;5133059;27;20046;-77
2023/08/10 06:15:47;;;;;;;5.38;2.40;;;15.70;99.90;;;;;;5105260;27;20119;-76
2023/08/10 06:18:13;;;;;;;3.65;3.15;;;15.80;99.90;;;;;;5138748;27;20130;-77
2023/08/10 06:20:40;;;;;;;6.25;3.28;;;15.90;99.90;;;;;;5123168;27;20046;-77
2023/08/10 06:23:06;;;;;;;5.47;2.80;;;16.00;99.90;;;;;;5132577;27;20130;-77
2023/08/10 06:25:32;;;;;;;6.70;2.67;;;16.10;99.90;;;;;;5128534;27;20051;-77
2023/08/10 06:27:58;;;;;;;3.13;2.80;;;16.10;99.90;;;;;;5130047;27;20479;-77
2023/08/10 06:30:25;;;;;;;5.97;2.88;;;16.10;99.90;;;;;;5118972;27;20134;-77
2023/08/10 06:32:51;;;;;;;7.00;3.05;;;16.10;99.90;;;;;;5135982;27;20075;-77
2023/08/10 06:35:18;;;;;;;3.58;2.35;;;16.10;99.90;;;;;;5116391;27;20053;-77
2023/08/10 06:37:44;;;;;;;5.75;3.03;;;16.10;99.90;;;;;;5131701;27;20091;-77
2023/08/10 06:40:15;;;;;;;3.53;2.58;;;16.20;99.90;;;;;;5133767;27;20047;-76
2023/08/10 06:42:41;;;;;;;6.50;2.95;;;16.20;99.90;;;;;;5133302;27;20115;-77
2023/08/10 06:45:08;;;;;;;4.45;2.88;;;16.30;99.90;;;;;;5102867;27;20146;-76
2023/08/10 06:47:34;;;;;;;3.90;2.33;;;16.40;99.90;;;;;;5132677;27;20151;-77
2023/08/10 06:50:00;;;;;;;4.88;2.60;;;16.50;99.90;;;;;;5119961;27;20054;-77
2023/08/10 06:52:26;;;;;;;4.13;2.30;;;16.70;99.90;;;;;;5136023;27;20042;-79
2023/08/10 06:54:54;;;;;;;6.70;2.28;;;16.90;99.90;;;;;;5134874;27;20479;-78
2023/08/10 06:57:21;;;;;;;6.15;2.47;;;17.80;99.90;;;;;;5126118;27;20034;-81
2023/08/10 06:59:47;;;;;;;4.65;2.15;;;19.50;99.90;;;;;;5115126;27;20347;-80
2023/08/10 07:02:14;;;;;;;3.90;1.95;;;20.90;99.90;;;;;;5121786;27;20055;-81
2023/08/10 07:04:39;;;;;;;3.35;1.63;;;22.20;99.90;;;;;;5105946;27;20125;-80
2023/08/10 07:07:05;;;;;;;2.85;1.67;;;22.90;99.90;;;;;;5129121;27;20372;-81
2023/08/10 07:09:31;;;;;;;2.20;1.58;;;23.70;99.90;;;;;;5135099;27;20156;-81
2023/08/10 07:11:57;;;;;;;3.00;1.40;;;24.40;99.90;;;;;;5128591;27;20039;-81
2023/08/10 07:14:22;;;;;;;4.45;1.27;;;24.90;99.90;;;;;;5124566;27;20051;-80
2023/08/10 07:16:48;;;;;;;3.92;1.23;;;25.40;98.70;;;;;;5122463;27;20042;-80
2023/08/10 07:19:14;;;;;;;3.45;1.27;;;26.00;97.90;;;;;;5123548;27;20051;-79
2023/08/10 07:21:39;;;;;;;2.67;1.60;;;26.50;97.20;;;;;;5123171;27;20126;-81
2023/08/10 07:24:05;;;;;;;2.67;1.30;;;27.00;96.30;;;;;;5136015;27;20047;-81
2023/08/10 07:26:33;;;;;;;4.20;1.85;;;27.20;95.50;;;;;;5117634;27;20055;-80
2023/08/10 07:29:00;;;;;;;2.85;1.40;;;27.50;94.90;;;;;;5117696;27;20497;-79
2023/08/10 07:31:28;;;;;;;5.90;1.30;;;27.90;94.40;;;;;;5138394;27;20168;-81
2023/08/10 07:33:54;;;;;;;6.18;1.20;;;28.50;93.70;;;;;;5094589;27;20176;-81
2023/08/10 07:36:20;;;;;;;3.88;1.38;;;28.60;92.80;;;;;;5125294;27;20553;-80
2023/08/10 07:38:46;;;;;;;4.60;1.80;;;28.40;92.20;;;;;;5127535;27;20048;-80
2023/08/10 07:41:13;;;;;;;2.10;1.48;;;28.90;91.80;;;;;;5128749;27;20085;-81
2023/08/10 07:43:39;;;;;;;3.28;1.40;;;29.10;91.30;;;;;;5139886;27;20047;-81
2023/08/10 07:46:05;;;;;;;3.00;1.40;;;29.30;91.40;;;;;;5124169;27;20039;-79
2023/08/10 07:48:30;;;;;;;12.65;1.98;;;29.40;90.30;;;;;;5118917;27;20047;-80
2023/08/10 07:50:58;;;;;;;3.05;1.30;;;29.50;90.50;;;;;;5122710;27;20073;-80
2023/08/10 07:53:24;;;;;;;6.25;1.80;;;29.40;90.00;;;;;;5129690;27;20056;-80
2023/08/10 07:55:50;;;;;;;1.77;1.13;;;29.50;89.90;;;;;;5143531;27;20050;-81
2023/08/10 07:58:16;;;;;;;3.80;1.17;;;28.60;87.80;;;;;;5106121;28;20047;-80
2023/08/10 08:00:42;;;;;;;1.92;1.33;;;27.70;89.00;;;;;;5125298;27;20138;-80
2023/08/10 08:03:09;;;;;;;2.17;1.30;;;26.60;89.40;;;;;;5126687;27;20054;-80
2023/08/10 08:05:37;;;;;;;1.83;1.23;;;25.90;90.00;;;;;;5140136;27;20051;-80
2023/08/10 08:08:07;;;;;;;2.97;1.25;;;25.30;90.20;;;;;;5134815;27;20062;-80
2023/08/10 08:10:33;;;;;;;2.80;1.17;;;24.90;90.60;;;;;;5123219;27;20132;-80
2023/08/10 08:12:59;;;;;;;2.10;1.13;;;24.30;90.90;;;;;;5122106;27;20051;-81
2023/08/10 08:15:26;;;;;;;2.72;1.48;;;23.60;91.50;;;;;;5121659;27;20592;-81
2023/08/10 08:18:29;;;;;;;4.90;1.58;;;23.20;91.90;;;;;;5122928;27;20043;-81
2023/08/10 08:20:56;;;;;;;4.68;1.52;;;22.80;91.70;;;;;;5130882;27;20050;-81
2023/08/10 08:23:22;;;;;;;3.78;1.63;;;22.50;93.20;;;;;;5119299;27;20100;-81
2023/08/10 08:25:47;;;;;;;3.67;1.20;;;22.30;93.20;;;;;;5130127;27;20050;-81
2023/08/10 08:28:13;;;;;;;3.78;1.17;;;22.10;93.40;;;;;;5131141;27;20594;-81
2023/08/10 08:30:39;;;;;;;3.25;1.20;;;22.00;93.50;;;;;;5137897;27;20059;-81
2023/08/10 08:33:05;;;;;;;2.45;1.35;;;21.80;93.40;;;;;;5108171;27;20459;-81
2023/08/10 08:35:30;;;;;;;3.65;1.75;;;21.70;93.80;;;;;;5128060;27;20097;-81
2023/08/10 08:37:56;;;;;;;5.53;1.85;;;21.60;94.30;;;;;;5135974;27;20047;-81
2023/08/10 08:40:22;;;;;;;5.38;1.40;;;21.40;94.70;;;;;;5129631;27;20043;-80
2023/08/10 08:42:48;;;;;;;3.83;1.67;;;21.30;95.10;;;;;;5108578;27;20051;-78
2023/08/10 08:45:15;;;;;;;4.03;1.40;;;21.10;95.60;;;;;;5133605;27;20043;-78
2023/08/10 08:47:42;;;;;;;3.45;1.40;;;21.10;95.50;;;;;;5129269;27;20113;-78
2023/08/10 08:50:09;;;;;;;3.33;1.98;;;21.10;95.40;;;;;;5137303;27;20048;-78
2023/08/10 08:52:35;;;;;;;2.80;1.77;;;21.00;95.50;;;;;;5126843;27;20891;-77
2023/08/10 08:55:02;;;;;;;3.13;1.23;;;20.90;95.40;;;;;;5130145;27;20047;-77
2023/08/10 08:57:28;;;;;;;4.15;1.50;;;20.90;95.90;;;;;;5116693;27;20089;-77
2023/08/10 08:59:54;;;;;;;2.25;1.23;;;20.90;95.80;;;;;;5137036;27;20483;-78
2023/08/10 09:02:19;;;;;;;4.20;1.77;;;20.90;95.90;;;;;;5109812;27;20043;-80
2023/08/10 09:04:45;;;;;;;3.15;1.73;;;20.90;96.00;;;;;;5123135;27;20505;-79
2023/08/10 09:07:12;;;;;;;2.53;1.65;;;21.00;96.10;;;;;;5136617;27;20099;-78
2023/08/10 09:09:39;;;;;;;2.53;1.48;;;21.00;96.60;;;;;;5137917;27;20074;-78
2023/08/10 09:12:39;;;;;;;3.20;1.52;;;20.90;96.20;;;;;;5136468;27;20046;-79
2023/08/10 09:15:11;;;;;;;2.65;1.27;;;20.90;96.10;;;;;;5139317;27;20047;-78
2023/08/10 09:17:48;;;;;;;1.50;1.33;;;20.70;96.10;;;;;;5124084;27;20062;-79
2023/08/10 09:20:28;;;;;;;2.85;1.40;;;20.80;96.60;;;;;;5126999;27;20123;-79
2023/08/10 09:22:55;;;;;;;2.88;1.45;;;20.80;96.70;;;;;;5144907;27;20051;-78
2023/08/10 09:25:22;;;;;;;3.03;1.77;;;20.90;96.90;;;;;;5129551;27;20054;-81
2023/08/10 09:27:49;;;;;;;3.22;1.55;;;20.90;96.80;;;;;;5120139;27;20050;-72
2023/08/10 09:30:16;;;;;;;3.80;1.50;;;20.90;96.60;;;;;;5135306;27;20127;-74
2023/08/10 09:32:42;;;;;;;1.58;1.35;;;21.00;96.70;;;;;;5125591;27;20040;-73
2023/08/10 09:35:19;;;;;;;3.70;1.38;;;21.10;96.60;;;;;;5130745;27;20167;-74
2023/08/10 09:37:47;;;;;;;2.38;1.67;;;21.20;97.20;;;;;;5131316;27;20069;-74
2023/08/10 09:40:15;;;;;;;3.90;1.83;;;21.00;96.70;;;;;;5124091;27;20050;-74
2023/08/10 09:42:41;;;;;;;2.22;1.35;;;21.10;96.70;;;;;;5124823;27;20153;-74
2023/08/10 09:45:12;;;;;;;2.53;1.52;;;21.10;96.90;;;;;;5124097;27;20055;-74
2023/08/10 09:47:43;;;;;;;2.80;1.65;;;21.20;96.80;;;;;;5129793;27;20035;-74
2023/08/10 09:50:12;;;;;;;4.20;1.80;;;21.30;96.80;;;;;;5131232;27;20042;-74
2023/08/10 09:52:39;;;;;;;3.50;1.40;;;21.40;97.10;;;;;;5138125;27;20047;-74
2023/08/10 09:55:06;;;;;;;5.65;1.50;;;21.30;97.00;;;;;;5132597;27;20069;-74
2023/08/10 09:57:33;;;;;;;3.17;1.38;;;21.40;97.10;;;;;;5124755;27;20039;-74
2023/08/10 09:59:59;;;;;;;4.53;1.58;;;21.40;96.90;;;;;;5124216;27;20039;-74
2023/08/10 10:02:26;;;;;;;2.45;1.33;;;21.50;96.90;;;;;;5106266;27;21199;-73
2023/08/10 10:04:52;;;;;;;4.68;1.50;;;21.60;96.80;;;;;;5133886;27;20123;-74
2023/08/10 10:07:27;;;;;;;3.25;1.60;;;21.60;96.20;;;;;;5123286;27;20043;-74
2023/08/10 10:09:58;;;;;;;2.17;1.35;;;21.70;96.20;;;;;;5123272;27;20050;-73
2023/08/10 10:12:24;;;;;;;3.85;1.50;;;21.60;96.40;;;;;;5124179;27;20051;-73
2023/08/10 10:14:51;;;;;;;2.15;1.38;;;21.50;96.50;;;;;;5123896;27;20502;-73
2023/08/10 10:17:18;;;;;;;2.28;1.67;;;21.50;96.50;;;;;;5104060;27;20086;-73
2023/08/10 10:19:46;;;;;;;4.70;1.48;;;21.50;97.10;;;;;;5134735;27;20044;-74
2023/08/10 10:22:15;;;;;;;6.05;1.70;;;21.50;97.10;;;;;;5127391;27;20046;-73
2023/08/10 10:24:41;;;;;;;4.28;1.30;;;21.50;97.30;;;;;;5130414;27;20051;-80
2023/08/10 10:27:09;;;;;;;4.32;1.27;;;21.40;97.20;;;;;;5129109;27;20092;-80
2023/08/10 10:29:48;;;;;;;5.43;1.50;;;21.40;97.20;;;;;;5111664;27;20039;-80
2023/08/10 10:32:21;;;;;;;3.63;1.40;;;21.40;96.70;;;;;;5129712;27;20055;-79
2023/08/10 10:34:49;;;;;;;1.85;1.25;;;21.30;97.10;;;;;;5104831;27;20051;-80
2023/08/10 10:37:35;;;;;;;2.80;1.50;;;21.40;97.10;;;;;;5110112;27;20077;-81
2023/08/10 10:40:16;;;;;;;2.53;1.42;;;21.40;96.90;;;;;;5129291;27;20044;-81
2023/08/10 10:43:01;;;;;;;1.73;1.50;;;21.40;96.60;;;;;;5135014;27;20147;-82
2023/08/10 10:45:27;;;;;;;1.63;1.13;;;21.40;97.10;;;;;;5126100;27;20479;-81
2023/08/10 10:47:57;;;;;;;3.08;1.80;;;21.40;97.20;;;;;;5123171;27;20070;-81
2023/08/10 10:50:24;;;;;;;3.40;1.27;;;21.40;97.10;;;;;;5089024;27;20125;-76
2023/08/10 10:53:02;;;;;;;1.73;1.33;;;21.40;97.60;;;;;;5129686;27;20078;-79
2023/08/10 10:55:33;;;;;;;2.80;1.45;;;21.30;97.50;;;;;;5137948;27;20561;-80
2023/08/10 10:58:04;;;;;;;4.07;1.80;;;21.40;97.70;;;;;;5134231;27;20492;-78
2023/08/10 11:00:30;;;;;;;4.07;1.38;;;21.40;97.50;;;;;;5123484;27;20478;-79
2023/08/10 11:02:56;;;;;;;2.10;1.08;;;21.30;97.30;;;;;;5124615;27;20062;-79
2023/08/10 11:05:22;;;;;;;2.88;1.55;;;21.40;97.70;;;;;;5117347;27;20050;-80
2023/08/10 11:07:50;;;;;;;3.95;1.75;;;21.40;97.70;;;;;;5131840;27;20042;-79
2023/08/10 11:10:17;;;;;;;4.00;1.50;;;21.50;97.80;;;;;;5138790;27;20055;-80
2023/08/10 11:12:44;;;;;;;3.58;1.60;;;21.50;97.70;;;;;;5124229;27;20043;-80
2023/08/10 11:15:13;;;;;;;3.20;1.33;;;21.60;97.80;;;;;;5136240;27;20049;-79
2023/08/10 11:17:41;;;;;;;4.57;1.90;;;21.60;97.60;;;;;;5131864;27;20034;-79
2023/08/10 11:20:14;;;;;;;2.83;1.55;;;21.80;97.70;;;;;;5134343;27;20058;-79
2023/08/10 11:22:44;;;;;;;1.20;1.10;;;21.90;97.80;;;;;;5138016;27;20042;-79
2023/08/10 11:25:16;;;;;;;2.28;1.35;;;22.00;97.00;;;;;;5140657;27;20050;-79
2023/08/10 11:27:53;;;;;;;2.00;1.38;;;22.00;96.80;;;;;;5135373;27;20079;-79
2023/08/10 11:30:22;;;;;;;4.03;1.33;;;22.00;96.90;;;;;;5140387;27;20057;-79
2023/08/10 11:32:49;;;;;;;2.70;1.13;;;22.00;97.00;;;;;;5132410;27;20920;-79
2023/08/10 11:35:21;;;;;;;3.00;1.20;;;22.10;97.10;;;;;;5128473;27;20058;-80
2023/08/10 11:37:48;;;;;;;4.80;1.70;;;22.00;97.00;;;;;;5111933;27;20823;-79
2023/08/10 11:40:20;;;;;;;2.80;1.60;;;22.00;97.20;;;;;;5130865;27;20054;-80
2023/08/10 11:43:14;;;;;;;3.13;1.30;;;21.90;97.30;;;;;;5126266;27;20038;-79
2023/08/10 11:45:41;;;;;;;3.58;1.60;;;21.90;97.40;;;;;;5108912;27;20047;-79
2023/08/10 11:48:11;;;;;;;4.00;1.70;;;22.00;97.60;;;;;;5131781;27;20380;-79
2023/08/10 11:50:40;;;;;;;3.60;1.83;;;22.00;97.30;;;;;;5123145;27;20053;-79
2023/08/10 11:53:12;;;;;;;7.63;1.80;;;22.10;97.40;;;;;;5139754;27;20050;-78
2023/08/10 11:55:45;;;;;;;2.88;1.38;;;22.00;97.30;;;;;;5113579;27;20062;-78
2023/08/10 11:58:13;;;;;;;5.90;1.90;;;22.00;97.40;;;;;;5115505;27;20058;-79
2023/08/10 12:00:42;;;;;;;6.22;1.70;;;22.00;97.10;;;;;;5126547;27;20135;-79
2023/08/10 12:03:14;;;;;;;3.85;1.70;;;22.30;97.40;;;;;;5137593;27;20117;-79
2023/08/10 12:05:46;;;;;;;4.55;1.90;;;22.20;97.60;;;;;;5108301;27;20051;-79
2023/08/10 12:08:17;;;;;;;1.63;1.33;;;22.40;98.10;;;;;;5145136;27;20039;-78
2023/08/10 12:10:47;;;;;;;4.80;1.92;;;22.40;97.50;;;;;;5131687;27;20046;-79
2023/08/10 12:13:14;;;;;;;4.38;2.08;;;22.60;97.30;;;;;;5135035;27;20059;-79
2023/08/10 12:15:46;;;;;;;3.10;1.92;;;22.60;97.30;;;;;;5131234;27;20109;-80
2023/08/10 12:18:13;;;;;;;3.15;1.95;;;22.70;97.60;;;;;;5145812;27;20095;-79
2023/08/10 12:20:40;;;;;;;4.95;1.90;;;22.80;97.80;;;;;;5113712;27;20039;-80
2023/08/10 12:23:09;;;;;;;2.45;1.95;;;22.80;97.50;;;;;;5106200;27;20050;-80
2023/08/10 12:25:35;;;;;;;2.67;1.60;;;22.90;97.40;;;;;;5125930;27;20054;-80
2023/08/10 12:28:00;;;;;;;2.85;1.80;;;23.00;97.20;;;;;;5142700;27;20039;-80
2023/08/10 12:30:26;;;;;;;3.45;1.88;;;23.00;97.00;;;;;;5110670;27;20468;-80
2023/08/10 12:32:52;;;;;;;4.00;1.88;;;23.00;97.20;;;;;;5126185;27;20054;-80
2023/08/10 12:35:18;;;;;;;6.30;2.83;;;22.90;97.40;;;;;;5118693;27;20777;-80
2023/08/10 12:37:46;;;;;;;2.78;2.05;;;22.70;97.40;;;;;;5131139;27;20043;-79
2023/08/10 12:40:13;;;;;;;3.00;2.20;;;22.50;97.30;;;;;;5115438;27;20062;-79
2023/08/10 12:42:39;;;;;;;2.33;1.85;;;22.40;97.80;;;;;;5129443;27;20042;-80
2023/08/10 12:45:08;;;;;;;2.15;1.88;;;22.40;98.10;;;;;;5116086;27;20058;-79
2023/08/10 12:47:33;;;;;;;3.92;2.30;;;22.30;98.20;;;;;;5124884;27;20074;-79
2023/08/10 12:49:59;;;;;;;4.20;1.67;;;22.20;98.20;;;;;;5126376;27;20593;-78